Time,TemperatureF,DewpointF,PressureIn,WindDirection,WindDirectionDegrees,WindSpeedMPH,WindSpeedGustMPH,Humidity,HourlyPrecipIn,Conditions,Clouds,dailyrainin,SoftwareType,DateUTC
2013-06-13 00:01:00,76.1,71.3,30.03,SE,135,1.1,1.1,85,0.00,,,0.00,WUHU216HW,2013-06-13 04:01:00,
2013-06-13 00:02:00,76.1,71.3,30.03,SE,135,1.1,1.1,85,0.00,,,0.00,WUHU216HW,2013-06-13 04:02:00,
2013-06-13 00:07:00,76.1,71.3,30.03,ESE,113,0.4,1.1,85,0.00,,,0.00,WUHU216HW,2013-06-13 04:07:00,
2013-06-13 00:12:00,76.1,71.3,30.02,East,90,1.1,1.1,85,0.00,,,0.00,WUHU216HW,2013-06-13 04:12:00,
2013-06-13 00:17:00,76.0,71.2,30.02,ENE,68,0.9,1.1,85,0.00,,,0.00,WUHU216HW,2013-06-13 04:17:00,
2013-06-13 00:22:00,76.0,71.2,30.02,ENE,68,0.0,0.9,85,0.00,,,0.00,WUHU216HW,2013-06-13 04:22:00,
2013-06-13 00:27:00,76.1,71.3,30.02,ENE,68,0.4,0.4,85,0.00,,,0.00,WUHU216HW,2013-06-13 04:27:00,
2013-06-13 00:32:00,76.0,71.2,30.02,North,0,1.6,1.6,85,0.00,,,0.00,WUHU216HW,2013-06-13 04:32:00,
2013-06-13 00:37:00,76.0,71.2,30.02,NNE,23,0.7,2.5,85,0.00,,,0.00,WUHU216HW,2013-06-13 04:37:00,
2013-06-13 00:43:00,75.8,71.0,30.02,NNE,23,1.8,2.5,85,0.00,,,0.00,WUHU216HW,2013-06-13 04:43:00,
2013-06-13 00:48:00,75.8,71.0,30.02,North,0,0.2,2.2,85,0.00,,,0.00,WUHU216HW,2013-06-13 04:48:00,
2013-06-13 00:53:00,75.8,71.0,30.02,North,0,0.7,1.8,85,0.00,,,0.00,WUHU216HW,2013-06-13 04:53:00,
2013-06-13 00:58:00,75.8,71.0,30.02,North,0,0.7,1.6,85,0.00,,,0.00,WUHU216HW,2013-06-13 04:58:00,
2013-06-13 01:03:00,75.6,70.8,30.02,North,0,2.2,2.2,85,0.00,,,0.00,WUHU216HW,2013-06-13 05:03:00,
2013-06-13 01:08:00,75.6,70.8,30.02,North,0,0.0,2.2,85,0.00,,,0.00,WUHU216HW,2013-06-13 05:08:00,
2013-06-13 01:13:00,75.6,70.8,30.01,North,0,1.8,1.8,85,0.00,,,0.00,WUHU216HW,2013-06-13 05:13:00,
2013-06-13 01:18:00,75.4,70.7,30.01,NNE,23,0.4,1.8,85,0.00,,,0.00,WUHU216HW,2013-06-13 05:18:00,
2013-06-13 01:24:00,75.4,71.0,30.01,NNE,23,0.0,1.6,86,0.00,,,0.00,WUHU216HW,2013-06-13 05:24:00,
2013-06-13 01:29:00,75.6,71.2,30.01,NNE,23,0.4,0.4,86,0.00,,,0.00,WUHU216HW,2013-06-13 05:29:00,
2013-06-13 01:34:00,75.4,71.0,30.01,East,90,0.4,1.1,86,0.00,,,0.00,WUHU216HW,2013-06-13 05:34:00,
2013-06-13 01:39:00,75.4,71.0,30.01,SE,135,0.7,1.1,86,0.00,,,0.00,WUHU216HW,2013-06-13 05:39:00,
2013-06-13 01:44:00,75.4,71.0,30.01,SE,135,0.4,1.3,86,0.00,,,0.00,WUHU216HW,2013-06-13 05:44:00,
2013-06-13 01:49:00,75.4,70.7,30.01,SE,135,0.4,1.3,85,0.00,,,0.00,WUHU216HW,2013-06-13 05:49:00,
2013-06-13 01:54:00,75.4,70.7,30.01,SSE,158,0.4,1.1,85,0.00,,,0.00,WUHU216HW,2013-06-13 05:54:00,
2013-06-13 01:59:00,75.4,70.7,30.01,SSE,158,0.4,0.4,85,0.00,,,0.00,WUHU216HW,2013-06-13 05:59:00,
2013-06-13 02:04:00,75.4,70.7,30.01,ESE,113,0.2,0.7,85,0.00,,,0.00,WUHU216HW,2013-06-13 06:04:00,
2013-06-13 02:10:00,75.4,71.0,30.01,ESE,113,0.0,0.7,86,0.00,,,0.00,WUHU216HW,2013-06-13 06:10:00,
2013-06-13 02:15:00,75.4,71.0,30.00,ESE,113,0.0,0.0,86,0.00,,,0.00,WUHU216HW,2013-06-13 06:15:00,
2013-06-13 02:20:00,75.2,70.8,30.00,ESE,113,0.2,0.4,86,0.00,,,0.00,WUHU216HW,2013-06-13 06:20:00,
2013-06-13 02:25:00,75.2,70.8,30.00,ESE,113,0.0,0.4,86,0.00,,,0.00,WUHU216HW,2013-06-13 06:25:00,
2013-06-13 02:30:00,75.2,70.8,30.00,ESE,113,0.2,0.4,86,0.00,,,0.00,WUHU216HW,2013-06-13 06:30:00,
2013-06-13 02:35:00,75.2,70.8,30.01,ESE,113,0.4,0.4,86,0.00,,,0.00,WUHU216HW,2013-06-13 06:35:00,
2013-06-13 02:40:00,75.2,70.8,30.00,ESE,113,0.0,0.4,86,0.00,,,0.00,WUHU216HW,2013-06-13 06:40:00,
2013-06-13 02:45:00,75.2,70.8,30.00,ESE,113,0.2,0.2,86,0.00,,,0.00,WUHU216HW,2013-06-13 06:45:00,
2013-06-13 02:50:00,75.2,70.8,30.00,ESE,113,0.0,0.2,86,0.00,,,0.00,WUHU216HW,2013-06-13 06:50:00,
2013-06-13 02:55:00,75.2,70.8,30.00,ESE,113,0.0,0.0,86,0.00,,,0.00,WUHU216HW,2013-06-13 06:55:00,
2013-06-13 03:00:00,75.1,70.7,30.00,ESE,113,0.2,0.2,86,0.00,,,0.00,WUHU216HW,2013-06-13 07:00:00,
2013-06-13 03:05:00,75.1,70.7,30.01,ESE,113,0.0,0.2,86,0.00,,,0.00,WUHU216HW,2013-06-13 07:05:00,
2013-06-13 03:11:00,75.1,70.7,30.01,ESE,113,0.0,0.0,86,0.00,,,0.00,WUHU216HW,2013-06-13 07:11:00,
2013-06-13 03:16:00,75.1,70.7,30.00,ESE,113,0.0,0.2,86,0.00,,,0.00,WUHU216HW,2013-06-13 07:16:00,
2013-06-13 03:21:00,74.9,70.5,30.00,ESE,113,0.0,0.2,86,0.00,,,0.00,WUHU216HW,2013-06-13 07:21:00,
2013-06-13 03:26:00,74.9,70.5,30.00,ESE,113,0.0,0.0,86,0.00,,,0.00,WUHU216HW,2013-06-13 07:26:00,
2013-06-13 03:31:00,74.9,70.5,30.00,ESE,113,0.0,0.2,86,0.00,,,0.00,WUHU216HW,2013-06-13 07:31:00,
2013-06-13 03:36:00,74.7,70.3,30.00,ESE,113,0.0,0.2,86,0.00,,,0.00,WUHU216HW,2013-06-13 07:36:00,
2013-06-13 03:41:00,74.7,70.3,30.00,ESE,113,0.0,0.4,86,0.00,,,0.00,WUHU216HW,2013-06-13 07:41:00,
2013-06-13 03:46:00,74.7,70.3,30.00,ESE,113,0.0,0.4,86,0.00,,,0.00,WUHU216HW,2013-06-13 07:46:00,
2013-06-13 03:51:00,74.7,70.3,30.00,ESE,113,0.0,0.0,86,0.00,,,0.00,WUHU216HW,2013-06-13 07:51:00,
2013-06-13 03:56:00,74.5,70.1,30.00,ESE,113,0.0,0.0,86,0.00,,,0.00,WUHU216HW,2013-06-13 07:56:00,
2013-06-13 04:01:00,74.5,70.1,30.00,ESE,113,0.0,0.0,86,0.00,,,0.00,WUHU216HW,2013-06-13 08:01:00,
2013-06-13 04:07:00,74.5,70.1,29.99,ESE,113,0.0,0.2,86,0.00,,,0.00,WUHU216HW,2013-06-13 08:07:00,
2013-06-13 04:12:00,74.5,70.1,29.99,ESE,113,0.4,0.4,86,0.00,,,0.00,WUHU216HW,2013-06-13 08:12:00,
2013-06-13 04:17:00,74.5,70.1,29.99,ESE,113,0.4,0.7,86,0.00,,,0.00,WUHU216HW,2013-06-13 08:17:00,
2013-06-13 04:22:00,74.5,70.1,29.99,ESE,113,0.9,1.1,86,0.00,,,0.00,WUHU216HW,2013-06-13 08:22:00,
2013-06-13 04:27:00,74.5,70.1,29.99,ESE,113,0.9,1.1,86,0.00,,,0.00,WUHU216HW,2013-06-13 08:27:00,
2013-06-13 04:32:00,74.5,70.1,29.98,ESE,113,0.7,0.9,86,0.00,,,0.00,WUHU216HW,2013-06-13 08:32:00,
2013-06-13 04:37:00,74.5,70.1,29.98,ESE,113,0.0,0.9,86,0.00,,,0.00,WUHU216HW,2013-06-13 08:37:00,
2013-06-13 04:42:00,74.5,70.1,29.98,ESE,113,0.0,0.7,86,0.00,,,0.00,WUHU216HW,2013-06-13 08:42:00,
2013-06-13 04:47:00,74.5,70.1,29.98,ESE,113,0.0,0.0,86,0.00,,,0.00,WUHU216HW,2013-06-13 08:47:00,
2013-06-13 04:52:00,74.3,69.9,29.98,ESE,113,0.2,0.4,86,0.00,,,0.00,WUHU216HW,2013-06-13 08:52:00,
2013-06-13 04:58:00,74.3,69.9,29.98,ESE,113,0.0,0.4,86,0.00,,,0.00,WUHU216HW,2013-06-13 08:58:00,
2013-06-13 05:03:00,74.2,69.8,29.97,ESE,113,0.0,0.2,86,0.00,,,0.00,WUHU216HW,2013-06-13 09:03:00,
2013-06-13 05:08:00,74.2,69.8,29.98,ESE,113,0.0,0.0,86,0.00,,,0.00,WUHU216HW,2013-06-13 09:08:00,
2013-06-13 05:13:00,74.2,69.8,29.98,ESE,113,0.0,0.0,86,0.00,,,0.00,WUHU216HW,2013-06-13 09:13:00,
2013-06-13 05:18:00,74.2,69.8,29.98,ESE,113,0.0,0.4,86,0.00,,,0.00,WUHU216HW,2013-06-13 09:18:00,
2013-06-13 05:23:00,74.2,69.8,29.98,ESE,113,0.0,0.4,86,0.00,,,0.00,WUHU216HW,2013-06-13 09:23:00,
2013-06-13 05:28:00,74.2,69.8,29.98,ESE,113,0.0,0.2,86,0.00,,,0.00,WUHU216HW,2013-06-13 09:28:00,
2013-06-13 05:33:00,74.2,69.8,29.98,East,90,0.4,0.9,86,0.00,,,0.00,WUHU216HW,2013-06-13 09:33:00,
2013-06-13 05:39:00,74.2,69.8,29.98,East,90,0.0,0.9,86,0.00,,,0.00,WUHU216HW,2013-06-13 09:39:00,
2013-06-13 05:44:00,74.2,69.8,29.98,East,90,0.2,0.9,86,0.00,,,0.00,WUHU216HW,2013-06-13 09:44:00,
2013-06-13 05:49:00,74.2,69.8,29.98,East,90,0.2,0.9,86,0.00,,,0.00,WUHU216HW,2013-06-13 09:49:00,
2013-06-13 05:54:00,74.2,69.8,29.98,East,90,0.0,0.7,86,0.00,,,0.00,WUHU216HW,2013-06-13 09:54:00,
2013-06-13 05:59:00,74.2,69.8,29.98,East,90,0.4,0.4,86,0.00,,,0.00,WUHU216HW,2013-06-13 09:59:00,
2013-06-13 06:04:00,74.2,69.8,29.98,East,90,0.2,0.4,86,0.00,,,0.00,WUHU216HW,2013-06-13 10:04:00,
2013-06-13 06:09:00,74.0,69.6,29.98,East,90,0.2,0.4,86,0.00,,,0.00,WUHU216HW,2013-06-13 10:09:00,
2013-06-13 06:14:00,74.0,69.6,29.98,East,90,0.0,0.2,86,0.00,,,0.00,WUHU216HW,2013-06-13 10:14:00,
2013-06-13 06:19:00,74.0,69.9,29.98,East,90,0.0,0.0,87,0.00,,,0.00,WUHU216HW,2013-06-13 10:19:00,
2013-06-13 06:24:00,74.0,69.9,29.98,East,90,0.0,0.0,87,0.00,,,0.00,WUHU216HW,2013-06-13 10:24:00,
2013-06-13 06:30:00,73.8,69.8,29.98,East,90,0.0,0.0,87,0.00,,,0.00,WUHU216HW,2013-06-13 10:30:00,
2013-06-13 06:35:00,73.8,69.8,29.98,East,90,0.0,0.0,87,0.00,,,0.00,WUHU216HW,2013-06-13 10:35:00,
2013-06-13 06:40:00,73.8,69.8,29.98,East,90,0.0,0.0,87,0.00,,,0.00,WUHU216HW,2013-06-13 10:40:00,
2013-06-13 06:45:00,73.8,69.8,29.99,East,90,0.0,0.0,87,0.00,,,0.00,WUHU216HW,2013-06-13 10:45:00,
2013-06-13 06:50:00,74.0,69.9,29.99,East,90,0.0,0.0,87,0.00,,,0.00,WUHU216HW,2013-06-13 10:50:00,
2013-06-13 06:55:00,73.8,69.8,29.99,East,90,0.0,0.0,87,0.00,,,0.00,WUHU216HW,2013-06-13 10:55:00,
2013-06-13 07:00:00,74.0,69.9,29.99,East,90,0.0,0.0,87,0.00,,,0.00,WUHU216HW,2013-06-13 11:00:00,
2013-06-13 07:05:00,74.0,69.9,29.99,East,90,0.0,0.0,87,0.00,,,0.00,WUHU216HW,2013-06-13 11:05:00,
2013-06-13 07:11:00,74.0,69.9,29.99,ENE,68,0.0,0.0,87,0.00,,,0.00,WUHU216HW,2013-06-13 11:11:00,
2013-06-13 07:16:00,74.2,70.1,29.99,NNE,23,0.0,0.0,87,0.00,,,0.00,WUHU216HW,2013-06-13 11:16:00,
2013-06-13 07:21:00,74.2,70.1,29.99,NNE,23,0.0,0.0,87,0.00,,,0.00,WUHU216HW,2013-06-13 11:21:00,
2013-06-13 07:26:00,74.2,70.1,29.99,NNE,23,0.0,0.0,87,0.00,,,0.00,WUHU216HW,2013-06-13 11:26:00,
2013-06-13 07:31:00,74.3,70.3,29.99,NNE,23,0.0,0.0,87,0.00,,,0.00,WUHU216HW,2013-06-13 11:31:00,
2013-06-13 07:36:00,74.3,70.3,29.99,NNE,23,0.0,0.0,87,0.00,,,0.00,WUHU216HW,2013-06-13 11:36:00,
2013-06-13 07:41:00,74.5,70.5,29.99,NNE,23,0.0,0.0,87,0.00,,,0.00,WUHU216HW,2013-06-13 11:41:00,
2013-06-13 07:46:00,74.5,70.5,29.99,NNE,23,0.0,0.0,87,0.00,,,0.00,WUHU216HW,2013-06-13 11:46:00,
2013-06-13 07:51:00,74.5,70.5,29.99,NNE,23,0.0,0.0,87,0.00,,,0.00,WUHU216HW,2013-06-13 11:51:00,
2013-06-13 07:56:00,74.7,70.7,29.99,NNE,23,0.0,0.0,87,0.00,,,0.00,WUHU216HW,2013-06-13 11:56:00,
2013-06-13 08:02:00,74.7,70.7,30.00,NNE,23,0.0,0.0,87,0.00,,,0.00,WUHU216HW,2013-06-13 12:02:00,
2013-06-13 08:07:00,74.7,70.7,30.00,East,90,0.4,0.4,87,0.00,,,0.00,WUHU216HW,2013-06-13 12:07:00,
2013-06-13 08:12:00,74.7,70.7,30.00,ENE,68,0.7,0.9,87,0.00,,,0.00,WUHU216HW,2013-06-13 12:12:00,
2013-06-13 08:17:00,74.9,70.8,30.01,North,0,0.0,0.9,87,0.00,,,0.00,WUHU216HW,2013-06-13 12:17:00,
2013-06-13 08:22:00,75.1,71.0,30.01,East,90,1.1,1.1,87,0.00,,,0.00,WUHU216HW,2013-06-13 12:22:00,
2013-06-13 08:27:00,75.1,71.0,30.01,East,90,0.0,1.1,87,0.00,,,0.00,WUHU216HW,2013-06-13 12:27:00,
2013-06-13 08:32:00,75.1,71.0,30.01,ESE,113,0.0,0.7,87,0.00,,,0.00,WUHU216HW,2013-06-13 12:32:00,
2013-06-13 08:37:00,75.2,71.2,30.02,ESE,113,0.4,0.4,87,0.00,,,0.00,WUHU216HW,2013-06-13 12:37:00,
2013-06-13 08:40:00,75.4,71.4,30.02,ESE,113,0.0,0.0,87,0.00,,,0.00,WUHU216HW,2013-06-13 12:40:00,
2013-06-13 08:42:00,75.4,71.4,30.02,ESE,113,0.0,0.4,87,0.00,,,0.00,WUHU216HW,2013-06-13 12:42:00,
2013-06-13 08:47:00,75.4,71.4,30.02,ESE,113,0.0,0.0,87,0.00,,,0.00,WUHU216HW,2013-06-13 12:47:00,
2013-06-13 09:00:00,75.8,71.6,30.02,ESE,113,0.0,0.0,87,0.00,,,0.00,WUHU216HW,2013-06-13 13:00:00,
2013-06-13 09:05:00,75.8,71.6,30.02,ESE,113,0.0,0.0,87,0.00,,,0.00,WUHU216HW,2013-06-13 13:05:00,
2013-06-13 09:10:00,75.6,71.5,30.02,ESE,113,0.4,0.4,87,0.00,,,0.00,WUHU216HW,2013-06-13 13:10:00,
2013-06-13 09:15:00,76.0,71.5,30.02,SE,135,0.4,1.1,86,0.00,,,0.00,WUHU216HW,2013-06-13 13:15:00,
2013-06-13 09:21:00,76.7,72.5,30.02,ESE,113,1.1,2.5,87,0.00,,,0.00,WUHU216HW,2013-06-13 13:21:00,
2013-06-13 09:26:00,77.4,72.9,30.02,ESE,113,1.1,2.5,86,0.00,,,0.00,WUHU216HW,2013-06-13 13:26:00,
2013-06-13 09:31:00,78.1,73.6,30.02,ESE,113,0.0,1.8,86,0.00,,,0.00,WUHU216HW,2013-06-13 13:31:00,
2013-06-13 09:36:00,78.5,74.0,30.02,SE,135,0.2,1.8,86,0.00,,,0.00,WUHU216HW,2013-06-13 13:36:00,
2013-06-13 09:41:00,79.0,74.5,30.02,SSE,158,0.9,1.8,86,0.00,,,0.00,WUHU216HW,2013-06-13 13:41:00,
2013-06-13 09:46:00,79.6,74.7,30.02,SSE,158,1.1,1.8,85,0.00,,,0.00,WUHU216HW,2013-06-13 13:46:00,
2013-06-13 09:51:00,80.1,75.2,30.02,ESE,113,0.0,2.2,85,0.00,,,0.00,WUHU216HW,2013-06-13 13:51:00,
2013-06-13 09:56:00,80.5,75.5,30.02,NNE,23,0.9,1.1,85,0.01,,,0.00,WUHU216HW,2013-06-13 13:56:00,
2013-06-13 10:02:00,81.0,75.7,30.03,SSE,158,0.0,0.9,84,0.01,,,0.00,WUHU216HW,2013-06-13 14:02:00,
2013-06-13 10:07:00,81.4,76.4,30.03,WNW,293,0.2,2.0,85,0.01,,,0.00,WUHU216HW,2013-06-13 14:07:00,
2013-06-13 10:12:00,81.7,76.4,30.03,ESE,113,0.7,2.0,84,0.01,,,0.00,WUHU216HW,2013-06-13 14:12:00,
2013-06-13 10:18:00,81.7,76.4,30.03,SSE,158,0.4,1.8,84,0.01,,,0.00,WUHU216HW,2013-06-13 14:18:00,
2013-06-13 10:23:00,81.7,76.4,30.03,NW,315,1.6,2.0,84,0.01,,,0.00,WUHU216HW,2013-06-13 14:23:00,
2013-06-13 10:28:00,82.1,76.4,30.03,SW,225,0.2,2.0,83,0.01,,,0.00,WUHU216HW,2013-06-13 14:28:00,
2013-06-13 10:33:00,82.4,76.5,30.02,SSW,203,0.2,1.1,82,0.01,,,0.00,WUHU216HW,2013-06-13 14:33:00,
2013-06-13 10:38:00,83.0,77.0,30.03,SW,225,0.0,1.1,82,0.01,,,0.00,WUHU216HW,2013-06-13 14:38:00,
2013-06-13 10:43:00,83.5,77.1,30.03,South,180,0.4,1.1,81,0.01,,,0.00,WUHU216HW,2013-06-13 14:43:00,
2013-06-13 10:48:00,84.1,77.2,30.03,WNW,293,0.7,1.3,80,0.01,,,0.00,WUHU216HW,2013-06-13 14:48:00,
2013-06-13 10:53:00,84.2,77.1,30.03,SW,225,0.0,1.3,79,0.00,,,0.00,WUHU216HW,2013-06-13 14:53:00,
2013-06-13 10:58:00,84.6,77.4,30.03,South,180,1.1,1.1,79,0.00,,,0.00,WUHU216HW,2013-06-13 14:58:00,
2013-06-13 11:03:00,85.1,77.5,30.03,SE,135,2.2,2.2,78,0.00,,,0.00,WUHU216HW,2013-06-13 15:03:00,
2013-06-13 11:09:00,85.1,77.1,30.03,SSE,158,1.3,2.2,77,0.00,,,0.00,WUHU216HW,2013-06-13 15:09:00,
2013-06-13 11:14:00,85.3,77.3,30.03,SW,225,0.4,2.7,77,0.00,,,0.00,WUHU216HW,2013-06-13 15:14:00,
2013-06-13 11:19:00,85.7,77.7,30.03,SSW,203,1.1,2.7,77,0.00,,,0.00,WUHU216HW,2013-06-13 15:19:00,
2013-06-13 11:24:00,86.2,77.8,30.02,ESE,113,1.8,2.0,76,0.00,,,0.00,WUHU216HW,2013-06-13 15:24:00,
2013-06-13 11:29:00,86.8,78.0,30.02,SSW,203,1.8,2.0,75,0.00,,,0.00,WUHU216HW,2013-06-13 15:29:00,
2013-06-13 11:34:00,87.1,77.4,30.02,SSE,158,0.2,1.8,73,0.00,,,0.00,WUHU216HW,2013-06-13 15:34:00,
2013-06-13 11:39:00,87.5,77.4,30.02,NW,315,0.4,1.1,72,0.00,,,0.00,WUHU216HW,2013-06-13 15:39:00,
2013-06-13 11:44:00,87.7,77.5,30.02,NE,45,1.1,1.1,72,0.00,,,0.00,WUHU216HW,2013-06-13 15:44:00,
2013-06-13 11:49:00,88.0,77.9,30.02,WSW,248,0.4,2.5,72,0.00,,,0.00,WUHU216HW,2013-06-13 15:49:00,
2013-06-13 11:55:00,88.4,77.9,30.02,West,270,0.7,2.5,71,0.00,,,0.00,WUHU216HW,2013-06-13 15:55:00,
2013-06-13 12:00:00,88.6,78.0,30.02,WSW,248,1.1,1.8,71,0.00,,,0.00,WUHU216HW,2013-06-13 16:00:00,
2013-06-13 12:05:00,88.2,77.7,30.02,SW,225,0.4,1.1,71,0.00,,,0.00,WUHU216HW,2013-06-13 16:05:00,
2013-06-13 12:10:00,88.7,78.2,30.02,NNW,338,3.4,3.6,71,0.00,,,0.00,WUHU216HW,2013-06-13 16:10:00,
2013-06-13 12:15:00,89.1,78.5,30.02,NW,315,1.1,3.6,71,0.00,,,0.00,WUHU216HW,2013-06-13 16:15:00,
2013-06-13 12:20:00,89.1,78.1,30.02,WSW,248,1.1,2.7,70,0.00,,,0.00,WUHU216HW,2013-06-13 16:20:00,
2013-06-13 12:25:00,89.3,78.3,30.02,NW,315,1.1,3.4,70,0.00,,,0.00,WUHU216HW,2013-06-13 16:25:00,
2013-06-13 12:30:00,89.5,78.5,30.02,NW,315,1.3,3.4,70,0.00,,,0.00,WUHU216HW,2013-06-13 16:30:00,
2013-06-13 12:35:00,89.6,78.2,30.02,NW,315,2.5,2.7,69,0.00,,,0.00,WUHU216HW,2013-06-13 16:35:00,
2013-06-13 12:41:00,90.2,79.1,30.02,NNW,338,0.4,2.5,70,0.00,,,0.00,WUHU216HW,2013-06-13 16:41:00,
2013-06-13 12:46:00,90.4,78.8,30.02,WSW,248,2.5,2.5,69,0.00,,,0.00,WUHU216HW,2013-06-13 16:46:00,
2013-06-13 12:51:00,90.4,78.8,30.02,SW,225,1.6,2.9,69,0.00,,,0.00,WUHU216HW,2013-06-13 16:51:00,
2013-06-13 12:56:00,90.5,78.6,30.02,SW,225,1.6,4.3,68,0.00,,,0.00,WUHU216HW,2013-06-13 16:56:00,
2013-06-13 13:01:00,90.7,78.7,30.02,WSW,248,2.7,4.3,68,0.00,,,0.00,WUHU216HW,2013-06-13 17:01:00,
2013-06-13 13:06:00,90.9,78.8,30.01,WSW,248,1.1,3.4,68,0.00,,,0.00,WUHU216HW,2013-06-13 17:06:00,
2013-06-13 13:11:00,90.9,78.4,30.01,WSW,248,1.3,2.7,67,0.00,,,0.00,WUHU216HW,2013-06-13 17:11:00,
2013-06-13 13:16:00,90.7,77.8,30.01,NNW,338,5.8,5.8,66,0.00,,,0.00,WUHU216HW,2013-06-13 17:16:00,
2013-06-13 13:21:00,90.7,77.8,30.01,WSW,248,1.6,5.8,66,0.00,,,0.00,WUHU216HW,2013-06-13 17:21:00,
2013-06-13 13:26:00,90.7,78.2,30.01,ESE,113,2.7,4.7,67,0.00,,,0.00,WUHU216HW,2013-06-13 17:26:00,
2013-06-13 13:31:00,91.1,78.1,30.00,SW,225,0.4,4.5,66,0.00,,,0.00,WUHU216HW,2013-06-13 17:31:00,
2013-06-13 13:37:00,91.3,77.8,30.00,NW,315,4.5,4.5,65,0.00,,,0.00,WUHU216HW,2013-06-13 17:37:00,
2013-06-13 13:42:00,91.1,77.6,30.00,West,270,1.1,4.5,65,0.00,,,0.00,WUHU216HW,2013-06-13 17:42:00,
2013-06-13 13:47:00,91.1,77.1,30.00,NNW,338,2.5,4.0,64,0.00,,,0.00,WUHU216HW,2013-06-13 17:47:00,
2013-06-13 13:52:00,91.1,77.1,30.00,ENE,68,1.8,2.5,64,0.00,,,0.00,WUHU216HW,2013-06-13 17:52:00,
2013-06-13 13:57:00,90.7,76.3,30.00,West,270,2.0,2.2,63,0.00,,,0.00,WUHU216HW,2013-06-13 17:57:00,
2013-06-13 14:02:00,90.0,76.1,30.00,WNW,293,1.6,2.9,64,0.00,,,0.00,WUHU216HW,2013-06-13 18:02:00,
2013-06-13 14:07:00,89.6,75.9,30.00,SSW,203,0.9,2.9,64,0.00,,,0.00,WUHU216HW,2013-06-13 18:07:00,
2013-06-13 14:12:00,89.5,76.1,30.00,WSW,248,1.1,2.7,65,0.00,,,0.00,WUHU216HW,2013-06-13 18:12:00,
2013-06-13 14:17:00,89.3,76.0,30.00,SSW,203,3.4,3.4,65,0.00,,,0.00,WUHU216HW,2013-06-13 18:17:00,
2013-06-13 14:23:00,89.1,75.8,30.01,WNW,293,1.3,3.4,65,0.00,,,0.00,WUHU216HW,2013-06-13 18:23:00,
2013-06-13 14:27:00,88.7,76.0,30.01,SW,225,1.1,1.1,66,0.00,,,0.00,WUHU216HW,2013-06-13 18:27:00,
2013-06-13 14:28:00,88.7,76.0,30.01,SW,225,1.1,1.8,66,0.00,,,0.00,WUHU216HW,2013-06-13 18:28:00,
2013-06-13 14:33:00,88.7,76.0,30.01,SW,225,1.1,1.1,66,0.00,,,0.00,WUHU216HW,2013-06-13 18:33:00,
2013-06-13 14:57:00,88.0,75.7,29.99,SSW,203,0.4,0.4,67,0.00,,,0.00,WUHU216HW,2013-06-13 18:57:00,
2013-06-13 15:02:00,87.7,75.3,29.99,SE,135,2.5,2.5,67,0.00,,,0.00,WUHU216HW,2013-06-13 19:02:00,
2013-06-13 15:08:00,87.3,75.0,29.99,SSE,158,0.4,2.5,67,0.00,,,0.00,WUHU216HW,2013-06-13 19:08:00,
2013-06-13 15:13:00,87.1,75.3,30.00,ESE,113,3.6,3.6,68,0.00,,,0.00,WUHU216HW,2013-06-13 19:13:00,
2013-06-13 15:18:00,86.4,75.1,29.99,SSE,158,1.1,3.6,69,0.00,,,0.00,WUHU216HW,2013-06-13 19:18:00,
2013-06-13 15:23:00,85.9,75.1,29.99,SE,135,3.1,3.1,70,0.00,,,0.00,WUHU216HW,2013-06-13 19:23:00,
2013-06-13 15:28:00,85.3,74.9,29.99,SE,135,2.5,3.1,71,0.00,,,0.00,WUHU216HW,2013-06-13 19:28:00,
2013-06-13 15:33:00,85.0,74.5,29.99,South,180,0.4,5.1,71,0.00,,,0.00,WUHU216HW,2013-06-13 19:33:00,
2013-06-13 15:38:00,84.6,74.6,29.99,SE,135,1.8,5.1,72,0.00,,,0.00,WUHU216HW,2013-06-13 19:38:00,
2013-06-13 15:43:00,84.1,74.1,29.98,South,180,0.7,2.7,72,0.00,,,0.00,WUHU216HW,2013-06-13 19:43:00,
2013-06-13 15:48:00,84.1,74.4,29.98,SE,135,0.9,2.7,73,0.00,,,0.00,WUHU216HW,2013-06-13 19:48:00,
2013-06-13 15:53:00,83.9,74.3,29.99,SE,135,0.9,2.5,73,0.00,,,0.00,WUHU216HW,2013-06-13 19:53:00,
2013-06-13 15:58:00,83.9,74.3,29.98,SSE,158,1.1,2.5,73,0.00,,,0.00,WUHU216HW,2013-06-13 19:58:00,
2013-06-13 16:04:00,83.9,74.7,29.97,SSE,158,1.8,2.2,74,0.00,,,0.00,WUHU216HW,2013-06-13 20:04:00,
2013-06-13 16:09:00,83.9,74.3,29.96,SSE,158,1.6,2.5,73,0.00,,,0.00,WUHU216HW,2013-06-13 20:09:00,
2013-06-13 16:14:00,83.9,74.7,29.97,SE,135,0.4,2.5,74,0.00,,,0.00,WUHU216HW,2013-06-13 20:14:00,
2013-06-13 16:19:00,83.7,74.5,29.98,ESE,113,3.1,3.1,74,0.00,,,0.00,WUHU216HW,2013-06-13 20:19:00,
2013-06-13 16:24:00,83.7,74.5,29.97,SSE,158,0.9,3.1,74,0.00,,,0.00,WUHU216HW,2013-06-13 20:24:00,
2013-06-13 16:29:00,83.5,74.7,29.97,SSE,158,0.0,1.8,75,0.00,,,0.00,WUHU216HW,2013-06-13 20:29:00,
2013-06-13 16:34:00,83.5,74.7,29.97,NNW,338,0.9,0.9,75,0.00,,,0.00,WUHU216HW,2013-06-13 20:34:00,
2013-06-13 16:39:00,83.5,74.7,29.96,NW,315,0.0,0.9,75,0.00,,,0.00,WUHU216HW,2013-06-13 20:39:00,
2013-06-13 16:44:00,83.7,74.9,29.95,SW,225,0.2,0.4,75,0.00,,,0.00,WUHU216HW,2013-06-13 20:44:00,
2013-06-13 16:49:00,83.9,75.1,29.94,SW,225,0.7,0.7,75,0.00,,,0.00,WUHU216HW,2013-06-13 20:49:00,
2013-06-13 16:55:00,83.9,75.5,29.94,SW,225,0.4,1.6,76,0.00,,,0.00,WUHU216HW,2013-06-13 20:55:00,
2013-06-13 17:00:00,83.9,75.5,29.93,SSW,203,0.7,1.6,76,0.00,,,0.00,WUHU216HW,2013-06-13 21:00:00,
2013-06-13 17:05:00,84.1,75.7,29.94,SSW,203,0.0,2.2,76,0.00,,,0.00,WUHU216HW,2013-06-13 21:05:00,
2013-06-13 17:10:00,84.2,75.8,29.95,NW,315,0.2,2.2,76,0.00,,,0.00,WUHU216HW,2013-06-13 21:10:00,
2013-06-13 17:15:00,84.2,75.8,29.96,WNW,293,0.9,1.1,76,0.00,,,0.00,WUHU216HW,2013-06-13 21:15:00,
2013-06-13 17:20:00,84.4,76.0,29.95,WNW,293,1.1,2.2,76,0.00,,,0.00,WUHU216HW,2013-06-13 21:20:00,
2013-06-13 17:25:00,84.4,75.6,29.94,WSW,248,1.1,2.2,75,0.00,,,0.00,WUHU216HW,2013-06-13 21:25:00,
2013-06-13 17:30:00,84.6,75.4,29.94,SW,225,0.4,2.0,74,0.00,,,0.00,WUHU216HW,2013-06-13 21:30:00,
2013-06-13 17:35:00,85.0,75.3,29.94,WSW,248,1.1,2.2,73,0.00,,,0.00,WUHU216HW,2013-06-13 21:35:00,
2013-06-13 17:41:00,84.8,75.2,29.94,West,270,1.8,2.2,73,0.00,,,0.00,WUHU216HW,2013-06-13 21:41:00,
2013-06-13 17:46:00,84.6,74.6,29.93,SSW,203,1.8,2.2,72,0.00,,,0.00,WUHU216HW,2013-06-13 21:46:00,
2013-06-13 17:51:00,84.6,74.6,29.94,SW,225,0.9,2.0,72,0.00,,,0.00,WUHU216HW,2013-06-13 21:51:00,
2013-06-13 17:56:00,84.6,74.6,29.94,South,180,0.2,2.0,72,0.00,,,0.00,WUHU216HW,2013-06-13 21:56:00,
2013-06-13 18:01:00,84.6,74.6,29.94,WSW,248,1.1,3.4,72,0.00,,,0.00,WUHU216HW,2013-06-13 22:01:00,
2013-06-13 18:06:00,84.6,74.6,29.93,WNW,293,2.5,3.4,72,0.00,,,0.00,WUHU216HW,2013-06-13 22:06:00,
2013-06-13 18:11:00,84.4,74.4,29.93,North,0,0.0,2.5,72,0.00,,,0.00,WUHU216HW,2013-06-13 22:11:00,
2013-06-13 18:16:00,84.2,74.3,29.94,West,270,2.5,2.5,72,0.00,,,0.00,WUHU216HW,2013-06-13 22:16:00,
2013-06-13 18:22:00,84.4,74.4,29.92,SE,135,0.4,2.5,72,0.00,,,0.00,WUHU216HW,2013-06-13 22:22:00,
2013-06-13 18:27:00,84.4,74.4,29.93,WSW,248,0.0,1.6,72,0.00,,,0.00,WUHU216HW,2013-06-13 22:27:00,
2013-06-13 18:32:00,84.4,74.4,29.93,West,270,0.2,1.8,72,0.00,,,0.00,WUHU216HW,2013-06-13 22:32:00,
2013-06-13 18:37:00,84.4,74.4,29.93,SW,225,0.9,1.8,72,0.00,,,0.00,WUHU216HW,2013-06-13 22:37:00,
2013-06-13 18:42:00,84.6,75.0,29.93,South,180,0.9,1.1,73,0.00,,,0.00,WUHU216HW,2013-06-13 22:42:00,
2013-06-13 18:47:00,84.6,75.0,29.92,West,270,0.4,0.9,73,0.00,,,0.00,WUHU216HW,2013-06-13 22:47:00,
2013-06-13 18:52:00,84.4,74.8,29.92,SW,225,0.4,0.7,73,0.00,,,0.00,WUHU216HW,2013-06-13 22:52:00,
2013-06-13 18:57:00,84.4,74.8,29.93,West,270,0.0,1.1,73,0.00,,,0.00,WUHU216HW,2013-06-13 22:57:00,
2013-06-13 19:03:00,84.4,74.8,29.92,WSW,248,0.4,1.1,73,0.00,,,0.00,WUHU216HW,2013-06-13 23:03:00,
2013-06-13 19:08:00,84.4,74.8,29.93,West,270,1.6,1.6,73,0.00,,,0.00,WUHU216HW,2013-06-13 23:08:00,
2013-06-13 19:13:00,84.2,74.6,29.93,WSW,248,0.0,1.6,73,0.00,,,0.00,WUHU216HW,2013-06-13 23:13:00,
2013-06-13 19:18:00,84.2,75.1,29.93,NW,315,1.1,1.1,74,0.00,,,0.00,WUHU216HW,2013-06-13 23:18:00,
2013-06-13 19:23:00,84.1,74.9,29.93,NW,315,1.6,1.6,74,0.00,,,0.00,WUHU216HW,2013-06-13 23:23:00,
2013-06-13 19:28:00,84.1,74.9,29.93,SW,225,0.7,1.6,74,0.00,,,0.00,WUHU216HW,2013-06-13 23:28:00,
2013-06-13 19:33:00,83.9,74.7,29.94,SW,225,0.0,1.1,74,0.00,,,0.00,WUHU216HW,2013-06-13 23:33:00,
2013-06-13 19:38:00,83.9,74.7,29.94,NW,315,1.3,1.3,74,0.00,,,0.00,WUHU216HW,2013-06-13 23:38:00,
2013-06-13 19:44:00,83.9,74.7,29.94,WSW,248,0.0,1.3,74,0.00,,,0.00,WUHU216HW,2013-06-13 23:44:00,
2013-06-13 19:49:00,83.9,74.7,29.94,WSW,248,0.0,0.4,74,0.00,,,0.00,WUHU216HW,2013-06-13 23:49:00,
2013-06-13 19:54:00,83.7,74.9,29.94,WSW,248,0.0,0.0,75,0.00,,,0.00,WUHU216HW,2013-06-13 23:54:00,
2013-06-13 19:59:00,83.7,74.9,29.94,SSE,158,0.4,0.4,75,0.00,,,0.00,WUHU216HW,2013-06-13 23:59:00,
2013-06-13 20:04:00,83.5,74.7,29.94,SE,135,0.9,1.1,75,0.00,,,0.00,WUHU216HW,2013-06-14 00:04:00,
2013-06-13 20:09:00,83.5,75.2,29.94,SE,135,0.7,1.3,76,0.00,,,0.00,WUHU216HW,2013-06-14 00:09:00,
2013-06-13 20:14:00,83.2,74.8,29.94,SSE,158,1.1,1.3,76,0.00,,,0.00,WUHU216HW,2013-06-14 00:14:00,
2013-06-13 20:19:00,83.2,74.8,29.94,ESE,113,0.2,2.0,76,0.00,,,0.00,WUHU216HW,2013-06-14 00:19:00,
2013-06-13 20:24:00,83.0,75.1,29.94,SE,135,1.6,2.0,77,0.00,,,0.00,WUHU216HW,2013-06-14 00:24:00,
2013-06-13 20:30:00,83.0,75.1,29.94,ESE,113,0.9,1.8,77,0.00,,,0.00,WUHU216HW,2013-06-14 00:30:00,
2013-06-13 20:35:00,82.8,75.2,29.94,SE,135,1.1,2.7,78,0.00,,,0.00,WUHU216HW,2013-06-14 00:35:00,
2013-06-13 20:40:00,82.4,75.3,29.94,East,90,2.9,2.9,79,0.00,,,0.00,WUHU216HW,2013-06-14 00:40:00,
2013-06-13 20:45:00,82.3,75.2,29.94,ESE,113,1.3,2.9,79,0.00,,,0.00,WUHU216HW,2013-06-14 00:45:00,
2013-06-13 20:50:00,82.1,75.4,29.94,ESE,113,1.6,1.6,80,0.00,,,0.00,WUHU216HW,2013-06-14 00:50:00,
2013-06-13 20:55:00,82.1,75.4,29.94,ESE,113,1.1,1.6,80,0.00,,,0.00,WUHU216HW,2013-06-14 00:55:00,
2013-06-13 21:00:00,81.9,75.2,29.94,SE,135,0.7,1.6,80,0.00,,,0.00,WUHU216HW,2013-06-14 01:00:00,
2013-06-13 21:05:00,81.9,75.2,29.94,SE,135,0.2,1.1,80,0.00,,,0.00,WUHU216HW,2013-06-14 01:05:00,
2013-06-13 21:10:00,81.9,75.6,29.94,SE,135,0.4,0.9,81,0.00,,,0.00,WUHU216HW,2013-06-14 01:10:00,
2013-06-13 21:16:00,81.7,75.4,29.94,SE,135,0.4,0.9,81,0.00,,,0.00,WUHU216HW,2013-06-14 01:16:00,
2013-06-13 21:21:00,81.7,75.4,29.94,SSE,158,0.4,1.3,81,0.00,,,0.00,WUHU216HW,2013-06-14 01:21:00,
2013-06-13 21:26:00,81.7,75.4,29.94,South,180,0.2,1.3,81,0.00,,,0.00,WUHU216HW,2013-06-14 01:26:00,
2013-06-13 21:31:00,81.5,75.3,29.94,South,180,0.4,0.4,81,0.00,,,0.00,WUHU216HW,2013-06-14 01:31:00,
2013-06-13 21:36:00,81.5,75.3,29.94,South,180,0.2,0.4,81,0.00,,,0.00,WUHU216HW,2013-06-14 01:36:00,
2013-06-13 21:41:00,81.4,75.1,29.93,South,180,0.0,0.4,81,0.00,,,0.00,WUHU216HW,2013-06-14 01:41:00,
2013-06-13 21:46:00,81.4,75.1,29.93,South,180,0.0,0.4,81,0.00,,,0.00,WUHU216HW,2013-06-14 01:46:00,
2013-06-13 21:51:00,81.4,75.1,29.93,South,180,0.0,0.4,81,0.00,,,0.00,WUHU216HW,2013-06-14 01:51:00,
2013-06-13 21:57:00,81.0,74.7,29.93,South,180,0.0,0.4,81,0.00,,,0.00,WUHU216HW,2013-06-14 01:57:00,
2013-06-13 22:02:00,81.0,74.7,29.93,SSE,158,0.2,0.4,81,0.00,,,0.00,WUHU216HW,2013-06-14 02:02:00,
2013-06-13 22:07:00,81.0,74.7,29.93,SSE,158,0.0,0.4,81,0.00,,,0.00,WUHU216HW,2013-06-14 02:07:00,
2013-06-13 22:12:00,81.0,74.7,29.93,SSE,158,0.0,0.0,81,0.00,,,0.00,WUHU216HW,2013-06-14 02:12:00,
2013-06-13 22:17:00,80.8,74.5,29.93,SSE,158,0.0,0.2,81,0.00,,,0.00,WUHU216HW,2013-06-14 02:17:00,
2013-06-13 22:22:00,80.6,74.4,29.93,SSE,158,0.0,0.2,81,0.00,,,0.00,WUHU216HW,2013-06-14 02:22:00,
2013-06-13 22:27:00,80.6,74.7,29.93,SSE,158,0.0,0.2,82,0.00,,,0.00,WUHU216HW,2013-06-14 02:27:00,
2013-06-13 22:32:00,80.6,74.7,29.94,SSE,158,0.2,0.2,82,0.00,,,0.00,WUHU216HW,2013-06-14 02:32:00,
2013-06-13 22:37:00,80.5,74.5,29.94,SSE,158,0.2,0.4,82,0.00,,,0.00,WUHU216HW,2013-06-14 02:37:00,
2013-06-13 22:43:00,80.3,74.4,29.94,SE,135,0.4,0.4,82,0.00,,,0.00,WUHU216HW,2013-06-14 02:43:00,
2013-06-13 22:48:00,80.3,74.4,29.94,SE,135,0.0,0.4,82,0.00,,,0.00,WUHU216HW,2013-06-14 02:48:00,
2013-06-13 22:53:00,80.3,74.4,29.94,SE,135,0.0,0.2,82,0.00,,,0.00,WUHU216HW,2013-06-14 02:53:00,
2013-06-13 22:58:00,80.1,74.5,29.95,SE,135,0.0,0.0,83,0.00,,,0.00,WUHU216HW,2013-06-14 02:58:00,
2013-06-13 23:03:00,79.9,74.4,29.95,SE,135,0.0,0.0,83,0.00,,,0.00,WUHU216HW,2013-06-14 03:03:00,
2013-06-13 23:08:00,79.7,74.2,29.95,East,90,0.4,0.9,83,0.00,,,0.00,WUHU216HW,2013-06-14 03:08:00,
2013-06-13 23:13:00,79.7,74.2,29.95,East,90,0.0,0.9,83,0.00,,,0.00,WUHU216HW,2013-06-14 03:13:00,
2013-06-13 23:18:00,79.6,74.0,29.95,East,90,0.0,0.7,83,0.00,,,0.00,WUHU216HW,2013-06-14 03:18:00,
2013-06-13 23:24:00,79.6,74.0,29.95,East,90,0.0,0.4,83,0.00,,,0.00,WUHU216HW,2013-06-14 03:24:00,
2013-06-13 23:29:00,79.6,74.0,29.95,East,90,0.0,0.2,83,0.00,,,0.00,WUHU216HW,2013-06-14 03:29:00,
2013-06-13 23:34:00,79.6,74.0,29.95,East,90,0.0,0.0,83,0.00,,,0.00,WUHU216HW,2013-06-14 03:34:00,
2013-06-13 23:39:00,79.4,73.8,29.96,East,90,0.0,0.0,83,0.00,,,0.00,WUHU216HW,2013-06-14 03:39:00,
2013-06-13 23:44:00,79.4,73.8,29.95,East,90,0.0,0.0,83,0.00,,,0.00,WUHU216HW,2013-06-14 03:44:00,
2013-06-13 23:49:00,79.4,74.2,29.95,East,90,0.0,0.0,84,0.00,,,0.00,WUHU216HW,2013-06-14 03:49:00,
2013-06-13 23:54:00,79.4,74.2,29.95,East,90,0.0,0.0,84,0.00,,,0.00,WUHU216HW,2013-06-14 03:54:00,
2013-06-13 23:59:00,79.4,74.2,29.95,East,90,0.0,0.0,84,0.00,,,0.00,WUHU216HW,2013-06-14 03:59:00,